Terminal Aerodrome Forecast
Issued by NWS Nashville, TN

Home | Current Version | Previous Version | Text Only | Print | Product List | Glossary On
Versions: 1 2 3 4 5 6 7 8 9 10 11 12 13 14 15 16 17 18 19
000
FTUS44 KOHX 252200 AAA
TAFBNA
TAF AMD
KBNA 252215Z 2522/2618 17010KT P6SM SCT020 BKN040
     FM261200 18010G18KT 5SM -SHRA VCTS BKN020CB OVC030=

USA.gov is the U.S. government's official web portal to all federal, state and local government web resources and services.